Terminal Aerodrome Forecast
Issued by NWS North Platte, NE

Home | Current Version | Previous Version | Text Only | Print | Product List | Glossary On
Versions: 1 2 3 4 5 6 7 8 9 10 11 12 13 14 15 16 17 18
000
FTUS43 KLBF 221727
TAFVTN
TAF
KVTN 221727Z 2218/2318 03009KT P6SM OVC008
     FM222300 07010KT P6SM OVC015
     FM230300 06009KT 3SM BR OVC003 PROB30 2306/2307 -TSRA BR
      OVC003CB
     FM230900 08009KT 1/2SM FG OVC003 PROB30 2309/2310 -TSRA
      OVC003CB
     FM231100 10009KT 3/4SM BR OVC003 PROB30 2311/2313 -TSRA BR
      OVC003CB
     FM231500 14013G19KT P6SM BKN020=

USA.gov is the U.S. government's official web portal to all federal, state and local government web resources and services.